| time (UTC) | temp C | wind direction | speed KPH | gust KPH | rain 1hr cm | rain 24hr cm | rain mn cm | humidity % | barometer mb |
| 20260505123004 | 11 | 83 | 0.0 | 0.0 | 0.00 | 0.00 | 0.00 | 84 | 1023.3 |
| 20260505121504 | 11 | 83 | 0.0 | 0.0 | 0.00 | 0.00 | 0.00 | 84 | 1023.6 |
| 20260505120032 | 11 | 83 | 0.0 | 0.0 | 0.00 | 0.00 | 0.00 | 84 | 1023.7 |
| 20260505114536 | 11 | 83 | 0.0 | 0.0 | 0.00 | 0.00 | 0.00 | 84 | 1023.7 |
| 20260505113035 | 11 | 83 | 0.0 | 0.0 | 0.00 | 0.00 | 0.00 | 84 | 1023.7 |
| 20260505111548 | 11 | 83 | 0.0 | 0.0 | 0.00 | 0.00 | 0.00 | 84 | 1023.5 |
| 20260505101553 | 11 | 83 | 0.0 | 0.0 | 0.00 | 0.00 | 0.00 | 84 | 1023.5 |
| 20260505100053 | 11 | 83 | 0.0 | 0.0 | 0.00 | 0.00 | 0.00 | 84 | 1023.5 |
| 20260505094551 | 11 | 83 | 0.0 | 1.6 | 0.00 | 0.00 | 0.00 | 84 | 1023.5 |
| 20260505093049 | 11 | 83 | 0.0 | 1.6 | 0.00 | 0.00 | 0.00 | 84 | 1023.5 |
| 20260505091548 | 11 | 83 | 0.0 | 0.0 | 0.00 | 0.00 | 0.00 | 84 | 1023.5 |
| 20260505090051 | 11 | 83 | 0.0 | 0.0 | 0.00 | 0.00 | 0.00 | 84 | 1023.4 |
| 20260505084542 | 11 | 83 | 0.0 | 0.0 | 0.00 | 0.00 | 0.00 | 84 | 1023.3 |
| 20260505083049 | 11 | 83 | 0.0 | 0.0 | 0.00 | 0.00 | 0.00 | 84 | 1023.0 |
| 20260505081546 | 11 | 83 | 0.0 | 0.0 | 0.00 | 0.00 | 0.00 | 84 | 1022.9 |
| 20260505080038 | 11 | 83 | 0.0 | 0.0 | 0.00 | 0.00 | 0.00 | 84 | 1022.7 |
| 20260505074533 | 12 | 83 | 0.0 | 0.0 | 0.00 | 0.00 | 0.00 | 84 | 1022.5 |
| 20260505073030 | 12 | 314 | 0.0 | 0.0 | 0.00 | 0.00 | 0.00 | 83 | 1022.4 |
| 20260505071532 | 12 | 314 | 0.0 | 0.0 | 0.00 | 0.00 | 0.00 | 82 | 1022.2 |
| 20260505070021 | 13 | 314 | 0.0 | 0.0 | 0.00 | 0.00 | 0.00 | 81 | 1022.0 |
| 20260505064523 | 13 | 315 | 0.0 | 0.0 | 0.00 | 0.00 | 0.00 | 79 | 1021.8 |
| 20260505063018 | 13 | 315 | 0.0 | 0.0 | 0.00 | 0.00 | 0.00 | 78 | 1021.7 |
| 20260505061529 | 13 | 314 | 0.0 | 1.6 | 0.00 | 0.00 | 0.00 | 76 | 1021.7 |
| 20260505060048 | 13 | 317 | 0.0 | 1.6 | 0.00 | 0.00 | 0.00 | 74 | 1021.7 |
| 20260505054555 | 13 | 315 | 0.0 | 6.4 | 0.00 | 0.00 | 0.00 | 74 | 1021.4 |
| 20260505053013 | 13 | 280 | 1.6 | 9.7 | 0.00 | 0.00 | 0.00 | 74 | 1021.2 |
| 20260505051515 | 13 | 302 | 0.0 | 1.6 | 0.00 | 0.00 | 0.00 | 75 | 1021.1 |
| 20260505041504 | 13 | 349 | 0.0 | 6.4 | 0.00 | 0.00 | 0.00 | 78 | 1020.8 |
| 20260505040104 | 13 | 288 | 0.0 | 3.2 | 0.00 | 0.00 | 0.00 | 79 | 1020.6 |
| 20260505034536 | 13 | 287 | 1.6 | 8.0 | 0.00 | 0.00 | 0.00 | 78 | 1020.6 |
| 20260505033036 | 13 | 313 | 0.0 | 4.8 | 0.00 | 0.00 | 0.00 | 79 | 1020.5 |
| 20260505031528 | 13 | 326 | 0.0 | 3.2 | 0.00 | 0.00 | 0.00 | 79 | 1020.5 |
| 20260505030027 | 13 | 273 | 0.0 | 8.0 | 0.00 | 0.00 | 0.00 | 78 | 1020.6 |
| 20260505024538 | 13 | 67 | 0.0 | 1.6 | 0.00 | 0.00 | 0.00 | 79 | 1020.5 |
| 20260505023022 | 13 | 308 | 0.0 | 4.8 | 0.00 | 0.00 | 0.00 | 80 | 1020.5 |
| 20260505021519 | 13 | 332 | 0.0 | 8.0 | 0.00 | 0.00 | 0.00 | 80 | 1020.5 |
| 20260505020018 | 13 | 353 | 0.0 | 4.8 | 0.00 | 0.00 | 0.00 | 81 | 1020.7 |
| 20260505014518 | 13 | 301 | 0.0 | 6.4 | 0.00 | 0.00 | 0.00 | 81 | 1020.8 |
| 20260505013022 | 12 | 275 | 0.0 | 3.2 | 0.00 | 0.00 | 0.00 | 82 | 1020.8 |
| 20260505011513 | 12 | 31 | 0.0 | 3.2 | 0.00 | 0.00 | 0.00 | 83 | 1020.8 |
| 20260505010012 | 12 | 309 | 0.0 | 4.8 | 0.00 | 0.00 | 0.00 | 83 | 1020.7 |
| 20260505004513 | 12 | 315 | 0.0 | 9.7 | 0.00 | 0.00 | 0.00 | 83 | 1020.6 |
| 20260505003010 | 12 | 337 | 0.0 | 6.4 | 0.00 | 0.00 | 0.00 | 83 | 1020.4 |
| 20260505001547 | 12 | 328 | 0.0 | 6.4 | 0.00 | 0.00 | 0.00 | 84 | 1020.3 |
| 20260505000041 | 12 | 338 | 0.0 | 9.7 | 0.00 | 0.00 | 0.00 | 84 | 1020.2 |
| 20260504234532 | 12 | 2 | 4.8 | 9.7 | 0.00 | 0.00 | 0.00 | 85 | 1020.1 |
| 20260504233032 | 11 | 265 | 0.0 | 1.6 | 0.00 | 0.00 | 0.00 | 83 | 1020.1 |
| 20260504231539 | 11 | 269 | 0.0 | 8.0 | 0.00 | 0.00 | 0.00 | 84 | 1020.0 |
| 20260504230026 | 11 | 24 | 0.0 | 4.8 | 0.00 | 0.00 | 0.00 | 83 | 1019.9 |
| 20260504224522 | 11 | 315 | 0.0 | 6.4 | 0.00 | 0.00 | 0.00 | 84 | 1019.8 |
| 20260504223015 | -17 | 0.0 | 0.0 | 0.00 | 0.00 | 0.00 | 1019.6 | ||
| 20260504221513 | -17 | 0.0 | 0.0 | 0.00 | 0.00 | 0.00 | 1019.4 | ||
| 20260504220012 | -17 | 0.0 | 0.0 | 0.00 | 0.00 | 0.00 | 1019.1 | ||
| 20260504214559 | -17 | 0.0 | 0.0 | 0.00 | 0.00 | 0.00 | 1018.8 | ||
| 20260504213054 | -17 | 0.0 | 0.0 | 0.00 | 0.00 | 0.00 | 1018.6 | ||
| 20260504211552 | -17 | 0.0 | 0.0 | 0.00 | 0.00 | 0.00 | 1018.2 | ||
| 20260504204547 | -17 | 0.0 | 0.0 | 0.00 | 0.00 | 0.00 | 1017.7 | ||
| 20260504203037 | -17 | 0.0 | 0.0 | 0.00 | 0.00 | 0.00 | 1017.5 | ||
| 20260504201529 | -17 | 0.0 | 0.0 | 0.00 | 0.00 | 0.00 | 1017.2 | ||
| 20260504200025 | -17 | 0.0 | 0.0 | 0.00 | 0.00 | 0.00 | 1017.1 | ||
| 20260504194530 | -17 | 0.0 | 0.0 | 0.00 | 0.00 | 0.00 | 1017.0 | ||
| 20260504193016 | -17 | 0.0 | 0.0 | 0.00 | 0.00 | 0.00 | 1016.8 | ||
| 20260504191509 | -17 | 0.0 | 0.0 | 0.00 | 0.00 | 0.00 | 1016.7 | ||
| 20260504190004 | -17 | 0.0 | 0.0 | 0.00 | 0.00 | 0.00 | 1016.5 | ||
| 20260504184559 | -17 | 0.0 | 0.0 | 0.00 | 0.00 | 0.00 | 1016.4 | ||
| 20260504183051 | -17 | 0.0 | 0.0 | 0.00 | 0.00 | 0.00 | 1016.2 | ||
| 20260504181550 | -17 | 0.0 | 0.0 | 0.00 | 0.00 | 0.00 | 1016.0 | ||
| 20260504180114 | -17 | 0.0 | 0.0 | 0.00 | 0.00 | 0.00 | 1015.6 | ||
| 20260504174536 | -17 | 0.0 | 0.0 | 0.00 | 0.00 | 0.00 | 1015.8 | ||
| 20260504173036 | -17 | 0.0 | 0.0 | 0.00 | 0.00 | 0.00 | 1015.5 | ||
| 20260504171528 | -17 | 0.0 | 0.0 | 0.00 | 0.00 | 0.00 | 1015.3 | ||
| 20260504140124 | 13 | 280 | 3.2 | 12.9 | 0.00 | 0.00 | 0.00 | 80 | 1014.2 |